METAR Data
IDs: Format: Raw Decoded Include TAF

Data at: 0514 UTC 24 Sep 2018

KVDI 240455Z AUTO 00000KT 10SM CLR 23/20 A3008 RMK AO2
KVDI 240435Z AUTO 00000KT 10SM CLR 23/20 A3008 RMK AO2
KVDI 240415Z AUTO 00000KT 10SM CLR 23/20 A3009 RMK AO2
KVDI 240355Z AUTO 00000KT 10SM SCT095 23/20 A3009 RMK AO2
KVDI 240335Z AUTO 11003KT 10SM CLR 23/20 A3008 RMK AO2
KVDI 240315Z AUTO 12003KT 10SM CLR 24/20 A3008 RMK AO2
KVDI 240255Z AUTO 12003KT 10SM SCT095 24/20 A3008 RMK AO2
KVDI 240235Z AUTO 12003KT 10SM BKN095 24/20 A3007 RMK AO2
KVDI 240215Z AUTO 12003KT 10SM CLR 24/20 A3008 RMK AO2
KVDI 240155Z AUTO 12003KT 10SM CLR 24/20 A3007 RMK AO2
KVDI 240135Z AUTO 10003KT 10SM CLR 25/20 A3007 RMK AO2
KVDI 240115Z AUTO 11004KT 10SM CLR 25/20 A3006 RMK AO2
KVDI 240055Z AUTO 10004KT 10SM CLR 25/19 A3006 RMK AO2
KVDI 240035Z AUTO 10005KT 10SM CLR 25/19 A3005 RMK AO2
KVDI 240015Z AUTO 09004KT 10SM CLR 26/19 A3004 RMK AO2
KVDI 232355Z AUTO 10004KT 10SM CLR 26/19 A3004 RMK AO2
KVDI 232335Z AUTO 10004KT 10SM CLR 26/19 A3004 RMK AO2
KVDI 232315Z AUTO 11004KT 10SM CLR 27/19 A3003 RMK AO2
KVDI 232255Z AUTO 13004KT 10SM CLR 28/20 A3003 RMK AO2
KVDI 232235Z AUTO 11006KT 10SM CLR 28/20 A3002 RMK AO2
KVDI 232215Z AUTO 12009KT 10SM CLR 30/20 A3002 RMK AO2
KVDI 232155Z AUTO 14007KT 10SM CLR 30/20 A3001 RMK AO2
KVDI 232135Z AUTO 14007KT 10SM SCT028 SCT034 31/20 A3001 RMK AO2
KVDI 232115Z AUTO 14006KT 10SM SCT060 30/21 A3001 RMK AO2
KVDI 232055Z AUTO 12008KT 10SM BKN060 31/21 A3001 RMK AO2
KVDI 232035Z AUTO 13011KT 10SM SCT050 BKN060 32/19 A3000 RMK AO2
KVDI 232015Z AUTO 10007KT 10SM BKN050 OVC085 32/17 A3001 RMK AO2
KVDI 231955Z AUTO 21003KT 10SM SCT055 SCT085 32/16 A3001 RMK AO2
KVDI 231935Z AUTO 14004KT 10SM SCT047 BKN085 33/16 A3002 RMK AO2
KVDI 231915Z AUTO 00000KT 10SM SCT047 BKN075 32/17 A3002 RMK AO2
KVDI 231855Z AUTO 00000KT 10SM SCT046 OVC075 31/17 A3003 RMK AO2
KVDI 231835Z AUTO 00000KT 10SM BKN046 BKN075 32/17 A3004 RMK AO2
KVDI 231815Z AUTO 33003KT 10SM SCT042 SCT049 SCT075 31/17 A3005 RMK AO2
KVDI 231755Z AUTO 00000KT 10SM CLR 31/17 A3006 RMK AO2
KVDI 231735Z AUTO 36005KT 10SM SCT037 SCT048 BKN070 32/17 A3007 RMK AO2
KVDI 231715Z AUTO 00000KT 10SM SCT037 SCT050 BKN070 30/18 A3007 RMK AO2
KVDI 231655Z AUTO 00000KT 10SM SCT032 BKN070 31/18 A3008 RMK AO2
KVDI 231635Z AUTO 00000KT 10SM OVC032 29/19 A3009 RMK AO2
KVDI 231615Z AUTO 02003KT 10SM SCT032 BKN038 BKN044 29/20 A3009 RMK AO2
KVDI 231555Z AUTO 00000KT 10SM BKN060 28/20 A3009 RMK AO2 LTG DSNT S
KVDI 231535Z AUTO 00000KT 10SM SCT024 SCT034 BKN050 28/20 A3009 RMK AO2
KVDI 231515Z AUTO 05003KT 10SM SCT022 BKN029 BKN035 29/20 A3009 RMK AO2
KVDI 231455Z AUTO 08004KT 10SM SCT020 SCT031 SCT044 28/20 A3010 RMK AO2
KVDI 231435Z AUTO 07004KT 10SM SCT031 SCT044 28/20 A3010 RMK AO2
KVDI 231415Z AUTO 08004KT 10SM SCT031 SCT046 27/21 A3009 RMK AO2
KVDI 231355Z AUTO 05004KT 10SM BKN031 OVC038 26/20 A3009 RMK AO2
KVDI 231335Z AUTO 06004KT 10SM OVC034 25/20 A3009 RMK AO2
KVDI 231315Z AUTO 05003KT 10SM SCT029 OVC034 25/20 A3009 RMK AO2
KVDI 231255Z AUTO 06004KT 10SM SCT027 23/20 A3008 RMK AO2
KVDI 231235Z AUTO 06004KT 10SM CLR 22/20 A3007 RMK AO2
KVDI 231215Z AUTO 05003KT 10SM CLR 21/19 A3007 RMK AO2
KVDI 231155Z AUTO 00000KT 10SM CLR 21/18 A3007 RMK AO2
KVDI 231135Z AUTO 00000KT 10SM CLR 20/18 A3006 RMK AO2
KVDI 231115Z AUTO 00000KT 10SM CLR 20/18 A3005 RMK AO2
KVDI 231055Z AUTO 00000KT 10SM CLR 21/18 A3004 RMK AO2
KVDI 231035Z AUTO 00000KT 10SM CLR 21/18 A3004 RMK AO2
KVDI 231015Z AUTO 00000KT 10SM CLR 21/18 A3004 RMK AO2
KVDI 230955Z AUTO 00000KT 10SM CLR 21/18 A3004 RMK AO2
KVDI 230935Z AUTO 00000KT 10SM CLR 21/18 A3004 RMK AO2
KVDI 230915Z AUTO 00000KT 10SM CLR 21/18 A3004 RMK AO2
KVDI 230850Z AUTO 00000KT 10SM CLR 21/19 A3004 RMK AO2
KVDI 230835Z AUTO 00000KT 10SM CLR 21/19 A3004 RMK AO2 LTG DSNT SW
KVDI 230815Z AUTO 00000KT 10SM CLR 21/19 A3004 RMK AO2
KVDI 230755Z AUTO 00000KT 10SM CLR 21/19 A3004 RMK AO2
KVDI 230735Z AUTO 00000KT 10SM CLR 21/19 A3004 RMK AO2
KVDI 230715Z AUTO 00000KT 10SM CLR 21/19 A3004 RMK AO2
KVDI 230655Z AUTO 00000KT 10SM CLR 22/19 A3005 RMK AO2
KVDI 230635Z AUTO 00000KT 10SM CLR 21/19 A3005 RMK AO2
KVDI 230615Z AUTO 00000KT 10SM CLR 22/20 A3006 RMK AO2
KVDI 230555Z AUTO 00000KT 10SM CLR 22/19 A3006 RMK AO2
KVDI 230535Z AUTO 00000KT 10SM CLR 22/19 A3007 RMK AO2
KVDI 230515Z AUTO 00000KT 10SM CLR 22/20 A3007 RMK AO2
KVDI 230455Z AUTO 00000KT 10SM CLR 22/20 A3007 RMK AO2
KVDI 230435Z AUTO 00000KT 10SM CLR 23/20 A3007 RMK AO2
KVDI 230415Z AUTO 00000KT 10SM SCT075 23/20 A3008 RMK AO2
KVDI 230355Z AUTO 00000KT 10SM OVC075 23/20 A3008 RMK AO2
KVDI 230335Z AUTO 00000KT 10SM OVC075 23/20 A3009 RMK AO2
KVDI 230315Z AUTO 00000KT 10SM SCT075 23/20 A3009 RMK AO2
KVDI 230255Z AUTO 00000KT 10SM CLR 24/20 A3008 RMK AO2
KVDI 230235Z AUTO 00000KT 10SM CLR 25/20 A3009 RMK AO2
KVDI 230215Z AUTO 00000KT 10SM CLR 25/20 A3008 RMK AO2
KVDI 230155Z AUTO 00000KT 10SM CLR 25/20 A3008 RMK AO2
KVDI 230135Z AUTO 16003KT 10SM CLR 25/20 A3007 RMK AO2
KVDI 230115Z AUTO 15003KT 10SM CLR 25/20 A3006 RMK AO2
KVDI 230055Z AUTO 00000KT 10SM CLR 26/20 A3005 RMK AO2
KVDI 230035Z AUTO 17003KT 10SM CLR 26/20 A3004 RMK AO2
KVDI 230015Z AUTO 16004KT 10SM CLR 27/20 A3004 RMK AO2
KVDI 222355Z AUTO 16004KT 10SM CLR 27/19 A3004 RMK AO2
KVDI 222335Z AUTO 15005KT 10SM SCT075 27/18 A3004 RMK AO2
KVDI 222315Z AUTO 13003KT 10SM SCT075 28/18 A3003 RMK AO2
KVDI 222255Z AUTO 13004KT 10SM SCT075 28/18 A3003 RMK AO2
KVDI 222235Z AUTO 13003KT 10SM OVC065 30/18 A3003 RMK AO2
KVDI 222215Z AUTO 13005KT 10SM BKN065 BKN085 30/18 A3002 RMK AO2
KVDI 222155Z AUTO 14003KT 10SM BKN065 OVC085 30/18 A3003 RMK AO2
KVDI 222135Z AUTO 14004KT 10SM OVC065 31/17 A3003 RMK AO2
KVDI 222115Z AUTO 13005KT 10SM BKN060 OVC075 31/15 A3003 RMK AO2
KVDI 222055Z AUTO 11003KT 10SM OVC070 32/14 A3003 RMK AO2
KVDI 222035Z AUTO 09006KT 10SM OVC070 32/14 A3003 RMK AO2
KVDI 222015Z AUTO 11008KT 10SM OVC060 33/13 A3003 RMK AO2
KVDI 221955Z AUTO 07010KT 10SM SCT060 32/12 A3003 RMK AO2
KVDI 221930Z AUTO 06006KT 10SM CLR 33/13 A3004 RMK AO2
KVDI 221915Z AUTO 08003KT 10SM CLR 33/13 A3004 RMK AO2
KVDI 221855Z AUTO 12005KT 10SM CLR 33/12 A3006 RMK AO2
KVDI 221835Z AUTO 14005KT 10SM SCT060 33/12 A3007 RMK AO2
KVDI 221815Z AUTO 14006KT 10SM CLR 32/12 A3008 RMK AO2
KVDI 221755Z AUTO 11007KT 080V140 10SM CLR 33/13 A3009 RMK AO2
KVDI 221735Z AUTO 04008KT 10SM CLR 32/15 A3009 RMK AO2
KVDI 221715Z AUTO 11008KT 10SM CLR 32/15 A3010 RMK AO2